sensor_id;sensor_type;location;lat;lon;timestamp;pressure;altitude;pressure_sealevel;temperature;humidity
78625;BME280;67944;0.000;0.000;2024-03-22T00:00:01;101409.75;;;22.64;34.51
78625;BME280;67944;0.000;0.000;2024-03-22T00:02:27;101410.59;;;22.64;34.90
78625;BME280;67944;0.000;0.000;2024-03-22T00:04:52;101403.63;;;22.63;34.67
78625;BME280;67944;0.000;0.000;2024-03-22T00:07:18;101403.63;;;22.63;34.80
78625;BME280;67944;0.000;0.000;2024-03-22T00:09:43;101395.66;;;22.63;35.02
78625;BME280;67944;0.000;0.000;2024-03-22T00:12:09;101397.47;;;22.63;35.01
78625;BME280;67944;0.000;0.000;2024-03-22T00:14:35;101389.50;;;22.63;34.83
78625;BME280;67944;0.000;0.000;2024-03-22T00:17:00;101383.38;;;22.62;34.78
78625;BME280;67944;0.000;0.000;2024-03-22T00:19:26;101381.72;;;22.61;34.98
78625;BME280;67944;0.000;0.000;2024-03-22T00:21:51;101372.09;;;22.60;34.83
78625;BME280;67944;0.000;0.000;2024-03-22T00:24:17;101371.09;;;22.61;34.87
78625;BME280;67944;0.000;0.000;2024-03-22T00:26:42;101365.94;;;22.60;34.72
78625;BME280;67944;0.000;0.000;2024-03-22T00:29:08;101363.28;;;22.60;34.92
78625;BME280;67944;0.000;0.000;2024-03-22T00:31:33;101356.16;;;22.60;34.81
78625;BME280;67944;0.000;0.000;2024-03-22T00:33:59;101362.47;;;22.59;35.10
78625;BME280;67944;0.000;0.000;2024-03-22T00:36:24;101359.97;;;22.57;34.79
78625;BME280;67944;0.000;0.000;2024-03-22T00:38:50;101355.50;;;22.58;34.73
78625;BME280;67944;0.000;0.000;2024-03-22T00:41:15;101366.28;;;22.56;35.10
78625;BME280;67944;0.000;0.000;2024-03-22T00:43:41;101360.16;;;22.56;35.13
78625;BME280;67944;0.000;0.000;2024-03-22T00:46:06;101343.41;;;22.55;34.83
78625;BME280;67944;0.000;0.000;2024-03-22T00:48:33;101343.41;;;22.55;34.80
78625;BME280;67944;0.000;0.000;2024-03-22T00:51:00;101348.69;;;22.55;34.93
78625;BME280;67944;0.000;0.000;2024-03-22T00:53:26;101342.56;;;22.55;34.87
78625;BME280;67944;0.000;0.000;2024-03-22T00:55:51;101340.91;;;22.54;35.07
78625;BME280;67944;0.000;0.000;2024-03-22T00:58:20;101339.25;;;22.53;35.05
78625;BME280;67944;0.000;0.000;2024-03-22T01:00:46;101333.13;;;22.52;35.00
78625;BME280;67944;0.000;0.000;2024-03-22T01:03:11;101334.94;;;22.52;34.20
78625;BME280;67944;0.000;0.000;2024-03-22T01:05:37;101337.59;;;22.52;35.01
78625;BME280;67944;0.000;0.000;2024-03-22T01:08:03;101331.50;;;22.51;34.85
78625;BME280;67944;0.000;0.000;2024-03-22T01:10:28;101329.84;;;22.50;35.00
78625;BME280;67944;0.000;0.000;2024-03-22T01:12:54;101323.69;;;22.50;35.06
78625;BME280;67944;0.000;0.000;2024-03-22T01:15:19;101323.69;;;22.50;34.84
78625;BME280;67944;0.000;0.000;2024-03-22T01:17:44;101334.31;;;22.50;35.07
78625;BME280;67944;0.000;0.000;2024-03-22T01:20:10;101325.53;;;22.49;34.84
78625;BME280;67944;0.000;0.000;2024-03-22T01:22:36;101317.56;;;22.49;34.65
78625;BME280;67944;0.000;0.000;2024-03-22T01:25:02;101314.06;;;22.49;35.04
78625;BME280;67944;0.000;0.000;2024-03-22T01:27:28;101312.41;;;22.48;34.53
78625;BME280;67944;0.000;0.000;2024-03-22T01:29:53;101313.41;;;22.47;34.88
78625;BME280;67944;0.000;0.000;2024-03-22T01:32:19;101312.59;;;22.46;35.21
78625;BME280;67944;0.000;0.000;2024-03-22T01:34:44;101309.94;;;22.46;35.03
78625;BME280;67944;0.000;0.000;2024-03-22T01:37:10;101309.09;;;22.46;35.05
78625;BME280;67944;0.000;0.000;2024-03-22T01:39:35;101302.97;;;22.45;35.02
78625;BME280;67944;0.000;0.000;2024-03-22T01:42:01;101310.09;;;22.45;34.85
78625;BME280;67944;0.000;0.000;2024-03-22T01:44:31;101310.09;;;22.45;34.95
78625;BME280;67944;0.000;0.000;2024-03-22T01:46:58;101305.78;;;22.44;34.99
78625;BME280;67944;0.000;0.000;2024-03-22T01:49:25;101313.75;;;22.44;35.06
78625;BME280;67944;0.000;0.000;2024-03-22T01:51:51;101310.28;;;22.43;35.02
78625;BME280;67944;0.000;0.000;2024-03-22T01:54:17;101301.66;;;22.41;35.11
78625;BME280;67944;0.000;0.000;2024-03-22T01:56:43;101306.78;;;22.43;34.74
78625;BME280;67944;0.000;0.000;2024-03-22T01:59:09;101310.44;;;22.42;35.01
78625;BME280;67944;0.000;0.000;2024-03-22T02:01:35;101311.44;;;22.41;34.96
78625;BME280;67944;0.000;0.000;2024-03-22T02:04:01;101308.78;;;22.41;34.97
78625;BME280;67944;0.000;0.000;2024-03-22T02:06:27;101309.78;;;22.40;34.78
78625;BME280;67944;0.000;0.000;2024-03-22T02:08:52;101303.66;;;22.39;34.86
78625;BME280;67944;0.000;0.000;2024-03-22T02:11:18;101303.66;;;22.39;35.04
78625;BME280;67944;0.000;0.000;2024-03-22T02:13:44;101292.38;;;22.37;34.81
78625;BME280;67944;0.000;0.000;2024-03-22T02:16:09;101298.50;;;22.38;34.96
78625;BME280;67944;0.000;0.000;2024-03-22T02:18:35;101297.69;;;22.37;34.68
78625;BME280;67944;0.000;0.000;2024-03-22T02:21:01;101297.69;;;22.37;34.91
78625;BME280;67944;0.000;0.000;2024-03-22T02:23:34;101291.53;;;22.37;34.87
78625;BME280;67944;0.000;0.000;2024-03-22T02:26:01;101294.38;;;22.35;34.62
78625;BME280;67944;0.000;0.000;2024-03-22T02:28:27;101289.06;;;22.35;34.95
78625;BME280;67944;0.000;0.000;2024-03-22T02:30:52;101288.22;;;22.35;34.95
78625;BME280;67944;0.000;0.000;2024-03-22T02:33:18;101277.63;;;22.35;34.89
78625;BME280;67944;0.000;0.000;2024-03-22T02:35:46;101267.00;;;22.35;34.73
78625;BME280;67944;0.000;0.000;2024-03-22T02:38:12;101269.81;;;22.33;35.00
78625;BME280;67944;0.000;0.000;2024-03-22T02:40:37;101263.50;;;22.34;34.77
78625;BME280;67944;0.000;0.000;2024-03-22T02:43:03;101259.19;;;22.33;35.01
78625;BME280;67944;0.000;0.000;2024-03-22T02:45:30;101257.72;;;22.31;35.03
78625;BME280;67944;0.000;0.000;2024-03-22T02:47:56;101261.84;;;22.33;34.75
78625;BME280;67944;0.000;0.000;2024-03-22T02:50:21;101256.72;;;22.32;34.79
78625;BME280;67944;0.000;0.000;2024-03-22T02:52:48;101253.25;;;22.31;34.91
78625;BME280;67944;0.000;0.000;2024-03-22T02:55:14;101257.72;;;22.31;34.79
78625;BME280;67944;0.000;0.000;2024-03-22T02:57:39;101248.13;;;22.30;35.05
78625;BME280;67944;0.000;0.000;2024-03-22T03:00:05;101246.47;;;22.29;34.93
78625;BME280;67944;0.000;0.000;2024-03-22T03:02:31;101242.16;;;22.28;35.04
78625;BME280;67944;0.000;0.000;2024-03-22T03:04:57;101244.81;;;22.28;35.05
78625;BME280;67944;0.000;0.000;2024-03-22T03:07:24;101234.22;;;22.28;34.97
78625;BME280;67944;0.000;0.000;2024-03-22T03:09:49;101231.56;;;22.28;35.01
78625;BME280;67944;0.000;0.000;2024-03-22T03:12:15;101229.91;;;22.27;34.92
78625;BME280;67944;0.000;0.000;2024-03-22T03:14:40;101234.22;;;22.28;34.81
78625;BME280;67944;0.000;0.000;2024-03-22T03:17:06;101236.88;;;22.28;34.81
78625;BME280;67944;0.000;0.000;2024-03-22T03:19:31;101223.75;;;22.26;34.40
78625;BME280;67944;0.000;0.000;2024-03-22T03:21:57;101235.19;;;22.27;34.98
78625;BME280;67944;0.000;0.000;2024-03-22T03:24:22;101231.72;;;22.26;34.76
78625;BME280;67944;0.000;0.000;2024-03-22T03:26:47;101228.25;;;22.26;34.87
78625;BME280;67944;0.000;0.000;2024-03-22T03:29:13;101231.91;;;22.25;34.95
78625;BME280;67944;0.000;0.000;2024-03-22T03:31:38;101237.19;;;22.25;34.85
78625;BME280;67944;0.000;0.000;2024-03-22T03:34:04;101230.06;;;22.25;34.77
78625;BME280;67944;0.000;0.000;2024-03-22T03:36:29;101230.06;;;22.25;34.93
78625;BME280;67944;0.000;0.000;2024-03-22T03:38:55;101221.28;;;22.25;34.99
78625;BME280;67944;0.000;0.000;2024-03-22T03:41:20;101221.09;;;22.26;35.02
78625;BME280;67944;0.000;0.000;2024-03-22T03:43:46;101211.31;;;22.27;34.88
78625;BME280;67944;0.000;0.000;2024-03-22T03:46:11;101214.81;;;22.27;34.93
78625;BME280;67944;0.000;0.000;2024-03-22T03:48:37;101213.81;;;22.28;34.90
78625;BME280;67944;0.000;0.000;2024-03-22T03:51:02;101219.13;;;22.28;34.86
78625;BME280;67944;0.000;0.000;2024-03-22T03:53:29;101215.47;;;22.29;34.95
78625;BME280;67944;0.000;0.000;2024-03-22T03:55:55;101212.81;;;22.29;34.79
78625;BME280;67944;0.000;0.000;2024-03-22T03:58:21;101211.78;;;22.30;35.01
78625;BME280;67944;0.000;0.000;2024-03-22T04:00:46;101202.81;;;22.31;34.82
78625;BME280;67944;0.000;0.000;2024-03-22T04:03:12;101211.59;;;22.32;34.88
78625;BME280;67944;0.000;0.000;2024-03-22T04:05:37;101206.31;;;22.32;34.75
78625;BME280;67944;0.000;0.000;2024-03-22T04:08:03;101202.66;;;22.33;34.82
78625;BME280;67944;0.000;0.000;2024-03-22T04:10:28;101200.66;;;22.35;34.81
78625;BME280;67944;0.000;0.000;2024-03-22T04:12:54;101199.00;;;22.34;34.68
78625;BME280;67944;0.000;0.000;2024-03-22T04:15:19;101201.72;;;22.17;34.41
78625;BME280;67944;0.000;0.000;2024-03-22T04:17:45;101208.78;;;21.86;34.09
78625;BME280;67944;0.000;0.000;2024-03-22T04:20:10;101202.72;;;21.61;34.16
78625;BME280;67944;0.000;0.000;2024-03-22T04:22:37;101212.00;;;21.49;34.45
78625;BME280;67944;0.000;0.000;2024-03-22T04:25:02;101204.75;;;21.35;34.16
78625;BME280;67944;0.000;0.000;2024-03-22T04:27:28;101193.63;;;21.23;34.24
78625;BME280;67944;0.000;0.000;2024-03-22T04:29:54;101193.97;;;21.12;34.25
78625;BME280;67944;0.000;0.000;2024-03-22T04:32:19;101191.47;;;21.02;34.45
78625;BME280;67944;0.000;0.000;2024-03-22T04:34:44;101187.00;;;20.95;34.22
78625;BME280;67944;0.000;0.000;2024-03-22T04:37:10;101182.38;;;20.88;34.34
78625;BME280;67944;0.000;0.000;2024-03-22T04:39:40;101185.81;;;20.81;33.85
78625;BME280;67944;0.000;0.000;2024-03-22T04:42:05;101188.97;;;20.76;33.86
78625;BME280;67944;0.000;0.000;2024-03-22T04:44:31;101194.91;;;20.70;34.33
78625;BME280;67944;0.000;0.000;2024-03-22T04:46:56;101196.38;;;20.65;34.43
78625;BME280;67944;0.000;0.000;2024-03-22T04:49:22;101191.25;;;20.55;34.40
78625;BME280;67944;0.000;0.000;2024-03-22T04:51:47;101191.72;;;20.42;33.98
78625;BME280;67944;0.000;0.000;2024-03-22T04:54:13;101187.69;;;20.30;34.45
78625;BME280;67944;0.000;0.000;2024-03-22T04:56:39;101189.00;;;20.26;34.26
78625;BME280;67944;0.000;0.000;2024-03-22T04:59:05;101183.69;;;20.26;34.42
78625;BME280;67944;0.000;0.000;2024-03-22T05:01:30;101182.03;;;20.25;34.92
78625;BME280;67944;0.000;0.000;2024-03-22T05:03:55;101182.56;;;20.29;34.77
78625;BME280;67944;0.000;0.000;2024-03-22T05:06:21;101176.31;;;20.38;34.23
78625;BME280;67944;0.000;0.000;2024-03-22T05:08:46;101175.34;;;20.47;34.87
78625;BME280;67944;0.000;0.000;2024-03-22T05:11:12;101178.66;;;20.57;34.58
78625;BME280;67944;0.000;0.000;2024-03-22T05:13:37;101183.00;;;20.66;34.18
78625;BME280;67944;0.000;0.000;2024-03-22T05:16:05;101176.91;;;20.74;34.44
78625;BME280;67944;0.000;0.000;2024-03-22T05:18:31;101179.53;;;20.82;34.55
78625;BME280;67944;0.000;0.000;2024-03-22T05:20:56;101181.38;;;20.90;34.38
78625;BME280;67944;0.000;0.000;2024-03-22T05:23:22;101181.56;;;20.96;34.37
78625;BME280;67944;0.000;0.000;2024-03-22T05:25:47;101195.75;;;21.03;34.53
78625;BME280;67944;0.000;0.000;2024-03-22T05:28:13;101188.81;;;21.10;34.80
78625;BME280;67944;0.000;0.000;2024-03-22T05:30:38;101185.53;;;21.16;34.56
78625;BME280;67944;0.000;0.000;2024-03-22T05:33:04;101190.00;;;21.24;34.66
78625;BME280;67944;0.000;0.000;2024-03-22T05:35:29;101185.03;;;21.29;34.74
78625;BME280;67944;0.000;0.000;2024-03-22T05:37:55;101176.44;;;21.35;34.73
78625;BME280;67944;0.000;0.000;2024-03-22T05:40:21;101178.41;;;21.41;34.48
78625;BME280;67944;0.000;0.000;2024-03-22T05:42:47;101169.75;;;21.47;34.27
78625;BME280;67944;0.000;0.000;2024-03-22T05:45:12;101163.97;;;21.52;34.46
78625;BME280;67944;0.000;0.000;2024-03-22T05:47:38;101168.59;;;21.58;34.26
78625;BME280;67944;0.000;0.000;2024-03-22T05:50:03;101175.06;;;21.64;34.12
78625;BME280;67944;0.000;0.000;2024-03-22T05:52:33;101176.34;;;21.68;33.99
78625;BME280;67944;0.000;0.000;2024-03-22T05:54:58;101181.97;;;21.73;34.19
78625;BME280;67944;0.000;0.000;2024-03-22T05:57:24;101176.16;;;21.77;34.17
78625;BME280;67944;0.000;0.000;2024-03-22T05:59:49;101188.09;;;21.81;34.29
78625;BME280;67944;0.000;0.000;2024-03-22T06:02:15;101175.31;;;21.85;34.08
78625;BME280;67944;0.000;0.000;2024-03-22T06:04:41;101172.31;;;21.88;34.29
78625;BME280;67944;0.000;0.000;2024-03-22T06:07:06;101170.13;;;21.92;34.10
78625;BME280;67944;0.000;0.000;2024-03-22T06:09:32;101173.94;;;21.97;33.88
78625;BME280;67944;0.000;0.000;2024-03-22T06:12:13;101173.63;;;22.00;34.20
78625;BME280;67944;0.000;0.000;2024-03-22T06:14:40;101168.81;;;22.04;33.97
78625;BME280;67944;0.000;0.000;2024-03-22T06:17:06;101157.84;;;22.07;34.34
78625;BME280;67944;0.000;0.000;2024-03-22T06:19:31;101161.97;;;22.09;34.13
78625;BME280;67944;0.000;0.000;2024-03-22T06:21:57;101160.78;;;22.12;34.01
78625;BME280;67944;0.000;0.000;2024-03-22T06:24:22;101159.63;;;22.14;34.09
78625;BME280;67944;0.000;0.000;2024-03-22T06:26:48;101160.28;;;22.16;34.01
78625;BME280;67944;0.000;0.000;2024-03-22T06:29:15;101152.97;;;22.18;34.01
78625;BME280;67944;0.000;0.000;2024-03-22T06:31:42;101149.97;;;22.21;34.09
78625;BME280;67944;0.000;0.000;2024-03-22T06:34:08;101143.50;;;22.24;34.08
78625;BME280;67944;0.000;0.000;2024-03-22T06:36:33;101143.16;;;22.27;33.89
78625;BME280;67944;0.000;0.000;2024-03-22T06:38:59;101139.34;;;22.30;33.78
78625;BME280;67944;0.000;0.000;2024-03-22T06:41:25;101137.31;;;22.32;33.95
78625;BME280;67944;0.000;0.000;2024-03-22T06:43:51;101136.97;;;22.35;34.14
78625;BME280;67944;0.000;0.000;2024-03-22T06:46:17;101130.66;;;22.36;34.03
78625;BME280;67944;0.000;0.000;2024-03-22T06:48:43;101126.81;;;22.38;33.94
78625;BME280;67944;0.000;0.000;2024-03-22T06:51:08;101121.34;;;22.40;33.93
78625;BME280;67944;0.000;0.000;2024-03-22T06:53:34;101127.47;;;22.40;33.83
78625;BME280;67944;0.000;0.000;2024-03-22T06:55:59;101122.00;;;22.42;34.10
78625;BME280;67944;0.000;0.000;2024-03-22T06:58:25;101127.31;;;22.42;33.82
78625;BME280;67944;0.000;0.000;2024-03-22T07:00:50;101119.00;;;22.45;34.44
78625;BME280;67944;0.000;0.000;2024-03-22T07:03:16;101117.81;;;22.47;33.84
78625;BME280;67944;0.000;0.000;2024-03-22T07:05:43;101122.78;;;22.50;33.94
78625;BME280;67944;0.000;0.000;2024-03-22T07:08:08;101120.56;;;22.54;34.02
78625;BME280;67944;0.000;0.000;2024-03-22T07:10:34;101134.66;;;22.54;34.11
78625;BME280;67944;0.000;0.000;2024-03-22T07:13:00;101125.69;;;22.55;33.97
78625;BME280;67944;0.000;0.000;2024-03-22T07:15:26;101128.19;;;22.57;33.84
78625;BME280;67944;0.000;0.000;2024-03-22T07:17:51;101120.88;;;22.59;34.11
78625;BME280;67944;0.000;0.000;2024-03-22T07:20:17;101118.22;;;22.59;34.08
78625;BME280;67944;0.000;0.000;2024-03-22T07:22:44;101113.56;;;22.61;34.06
78625;BME280;67944;0.000;0.000;2024-03-22T07:25:09;101117.69;;;22.64;33.66
78625;BME280;67944;0.000;0.000;2024-03-22T07:27:36;101119.34;;;22.65;34.03
78625;BME280;67944;0.000;0.000;2024-03-22T07:30:02;101110.38;;;22.66;33.99
78625;BME280;67944;0.000;0.000;2024-03-22T07:32:29;101111.19;;;22.66;34.13
78625;BME280;67944;0.000;0.000;2024-03-22T07:34:54;101100.59;;;22.66;33.99
78625;BME280;67944;0.000;0.000;2024-03-22T07:37:20;101096.94;;;22.67;33.92
78625;BME280;67944;0.000;0.000;2024-03-22T07:39:46;101104.72;;;22.69;34.14
78625;BME280;67944;0.000;0.000;2024-03-22T07:42:11;101105.53;;;22.69;34.06
78625;BME280;67944;0.000;0.000;2024-03-22T07:44:36;101097.56;;;22.69;33.93
78625;BME280;67944;0.000;0.000;2024-03-22T07:49:27;101097.22;;;22.72;34.46
78625;BME280;67944;0.000;0.000;2024-03-22T07:51:53;101092.75;;;22.73;34.02
78625;BME280;67944;0.000;0.000;2024-03-22T07:54:18;101097.84;;;22.74;34.21
78625;BME280;67944;0.000;0.000;2024-03-22T07:56:44;101095.19;;;22.74;34.02
78625;BME280;67944;0.000;0.000;2024-03-22T07:59:10;101090.69;;;22.75;33.94
78625;BME280;67944;0.000;0.000;2024-03-22T08:01:35;101089.69;;;22.76;34.33
78625;BME280;67944;0.000;0.000;2024-03-22T08:04:01;101089.69;;;22.76;34.06
78625;BME280;67944;0.000;0.000;2024-03-22T08:06:26;101087.03;;;22.76;34.00
78625;BME280;67944;0.000;0.000;2024-03-22T08:08:52;101086.91;;;22.77;34.09
78625;BME280;67944;0.000;0.000;2024-03-22T08:11:17;101099.16;;;22.78;34.07
78625;BME280;67944;0.000;0.000;2024-03-22T08:13:43;101098.34;;;22.78;34.34
78625;BME280;67944;0.000;0.000;2024-03-22T08:16:08;101084.88;;;22.79;34.13
78625;BME280;67944;0.000;0.000;2024-03-22T08:18:34;101083.06;;;22.80;34.37
78625;BME280;67944;0.000;0.000;2024-03-22T08:20:59;101086.53;;;22.80;34.34
78625;BME280;67944;0.000;0.000;2024-03-22T08:23:25;101085.72;;;22.80;34.17
78625;BME280;67944;0.000;0.000;2024-03-22T08:25:51;101079.59;;;22.79;34.15
78625;BME280;67944;0.000;0.000;2024-03-22T08:28:16;101073.44;;;22.79;34.30
78625;BME280;67944;0.000;0.000;2024-03-22T08:30:43;101080.41;;;22.80;34.14
78625;BME280;67944;0.000;0.000;2024-03-22T08:33:09;101078.41;;;22.82;34.56
78625;BME280;67944;0.000;0.000;2024-03-22T08:35:35;101063.28;;;22.82;34.19
78625;BME280;67944;0.000;0.000;2024-03-22T08:38:00;101074.56;;;22.84;34.75
78625;BME280;67944;0.000;0.000;2024-03-22T08:40:26;101068.25;;;22.85;34.49
78625;BME280;67944;0.000;0.000;2024-03-22T08:42:52;101060.09;;;22.87;34.23
78625;BME280;67944;0.000;0.000;2024-03-22T08:45:17;101059.91;;;22.88;34.24
78625;BME280;67944;0.000;0.000;2024-03-22T08:47:43;101055.25;;;22.90;34.26
78625;BME280;67944;0.000;0.000;2024-03-22T08:50:11;101052.41;;;22.92;34.38
78625;BME280;67944;0.000;0.000;2024-03-22T08:52:37;101053.25;;;22.93;34.50
78625;BME280;67944;0.000;0.000;2024-03-22T08:55:03;101051.41;;;22.93;34.67
78625;BME280;67944;0.000;0.000;2024-03-22T08:57:31;101042.63;;;22.93;34.61
78625;BME280;67944;0.000;0.000;2024-03-22T08:59:56;101040.97;;;22.92;34.35
78625;BME280;67944;0.000;0.000;2024-03-22T09:02:22;101048.13;;;22.91;34.74
78625;BME280;67944;0.000;0.000;2024-03-22T09:04:48;101041.78;;;22.92;34.59
78625;BME280;67944;0.000;0.000;2024-03-22T09:07:13;101033.66;;;22.94;34.69
78625;BME280;67944;0.000;0.000;2024-03-22T09:09:39;101034.66;;;22.93;34.77
78625;BME280;67944;0.000;0.000;2024-03-22T09:12:04;101026.50;;;22.94;34.79
78625;BME280;67944;0.000;0.000;2024-03-22T09:14:30;101021.19;;;22.94;34.70
78625;BME280;67944;0.000;0.000;2024-03-22T09:16:55;101031.59;;;22.96;34.87
78625;BME280;67944;0.000;0.000;2024-03-22T09:19:21;101020.97;;;22.96;34.82
78625;BME280;67944;0.000;0.000;2024-03-22T09:21:46;101027.34;;;22.95;34.73
78625;BME280;67944;0.000;0.000;2024-03-22T09:24:12;101026.28;;;22.96;35.08
78625;BME280;67944;0.000;0.000;2024-03-22T09:26:37;101027.94;;;22.97;34.76
78625;BME280;67944;0.000;0.000;2024-03-22T09:29:03;101024.28;;;22.98;34.53
78625;BME280;67944;0.000;0.000;2024-03-22T09:31:29;101013.47;;;22.99;35.15
78625;BME280;67944;0.000;0.000;2024-03-22T09:33:56;101015.31;;;22.99;35.02
78625;BME280;67944;0.000;0.000;2024-03-22T09:36:21;101008.16;;;22.99;34.82
78625;BME280;67944;0.000;0.000;2024-03-22T09:38:47;101007.16;;;23.00;34.82
78625;BME280;67944;0.000;0.000;2024-03-22T09:41:14;101005.31;;;23.01;34.94
78625;BME280;67944;0.000;0.000;2024-03-22T09:43:39;100999.19;;;23.00;34.76
78625;BME280;67944;0.000;0.000;2024-03-22T09:46:05;101002.66;;;23.01;34.85
78625;BME280;67944;0.000;0.000;2024-03-22T09:48:31;100992.03;;;23.01;35.29
78625;BME280;67944;0.000;0.000;2024-03-22T09:50:57;100991.88;;;23.02;35.07
78625;BME280;67944;0.000;0.000;2024-03-22T09:53:27;100991.69;;;23.04;34.66
78625;BME280;67944;0.000;0.000;2024-03-22T09:55:58;100994.16;;;23.05;35.29
78625;BME280;67944;0.000;0.000;2024-03-22T09:58:25;100984.34;;;23.06;35.26
78625;BME280;67944;0.000;0.000;2024-03-22T10:00:50;100980.69;;;23.07;35.33
78625;BME280;67944;0.000;0.000;2024-03-22T10:03:16;100969.06;;;23.08;34.74
78625;BME280;67944;0.000;0.000;2024-03-22T10:05:42;100966.41;;;23.08;35.27
78625;BME280;67944;0.000;0.000;2024-03-22T10:08:07;100969.69;;;23.10;35.33
78625;BME280;67944;0.000;0.000;2024-03-22T10:10:33;100967.69;;;23.12;35.43
78625;BME280;67944;0.000;0.000;2024-03-22T10:13:03;100966.69;;;23.13;35.46
78625;BME280;67944;0.000;0.000;2024-03-22T10:15:30;100961.56;;;23.11;35.16
78625;BME280;67944;0.000;0.000;2024-03-22T10:17:58;100960.72;;;23.11;35.48
78625;BME280;67944;0.000;0.000;2024-03-22T10:20:24;100951.75;;;23.12;35.02
78625;BME280;67944;0.000;0.000;2024-03-22T10:22:58;100953.41;;;23.13;34.95
78625;BME280;67944;0.000;0.000;2024-03-22T10:25:25;100949.91;;;23.12;34.97
78625;BME280;67944;0.000;0.000;2024-03-22T10:27:51;100946.44;;;23.12;35.41
78625;BME280;67944;0.000;0.000;2024-03-22T10:30:16;100941.94;;;23.12;35.59
78625;BME280;67944;0.000;0.000;2024-03-22T10:32:43;100950.75;;;23.13;35.64
78625;BME280;67944;0.000;0.000;2024-03-22T10:35:14;100943.59;;;23.13;34.95
78625;BME280;67944;0.000;0.000;2024-03-22T10:37:40;100939.94;;;23.14;35.00
78625;BME280;67944;0.000;0.000;2024-03-22T10:40:06;100925.41;;;23.17;35.07
78625;BME280;67944;0.000;0.000;2024-03-22T10:42:38;100922.16;;;23.15;35.12
78625;BME280;67944;0.000;0.000;2024-03-22T10:45:06;100923.59;;;23.17;35.52
78625;BME280;67944;0.000;0.000;2024-03-22T10:47:33;100913.78;;;23.18;35.27
78625;BME280;67944;0.000;0.000;2024-03-22T10:52:34;100902.78;;;23.21;35.05
78625;BME280;67944;0.000;0.000;2024-03-22T10:55:04;100909.75;;;23.22;35.01
78625;BME280;67944;0.000;0.000;2024-03-22T10:57:32;100900.13;;;23.21;34.95
78625;BME280;67944;0.000;0.000;2024-03-22T11:00:04;100892.97;;;23.21;35.06
78625;BME280;67944;0.000;0.000;2024-03-22T11:02:36;100887.66;;;23.21;35.52
78625;BME280;67944;0.000;0.000;2024-03-22T11:05:03;100891.78;;;23.24;35.61
78625;BME280;67944;0.000;0.000;2024-03-22T11:07:32;100884.00;;;23.22;35.77
78625;BME280;67944;0.000;0.000;2024-03-22T11:09:58;100875.03;;;23.23;35.39
78625;BME280;67944;0.000;0.000;2024-03-22T11:12:25;100868.69;;;23.24;35.77
78625;BME280;67944;0.000;0.000;2024-03-22T11:14:55;100862.19;;;23.27;35.19
78625;BME280;67944;0.000;0.000;2024-03-22T11:17:20;100866.50;;;23.28;35.46
78625;BME280;67944;0.000;0.000;2024-03-22T11:19:53;100865.47;;;23.29;35.13
78625;BME280;67944;0.000;0.000;2024-03-22T11:22:18;100846.88;;;23.29;35.29
78625;BME280;67944;0.000;0.000;2024-03-22T11:24:44;100852.00;;;23.31;35.77
78625;BME280;67944;0.000;0.000;2024-03-22T11:27:10;100845.88;;;23.30;35.44
78625;BME280;67944;0.000;0.000;2024-03-22T11:29:37;100843.22;;;23.30;35.50
78625;BME280;67944;0.000;0.000;2024-03-22T11:32:09;100838.72;;;23.31;35.44
78625;BME280;67944;0.000;0.000;2024-03-22T11:34:39;100826.25;;;23.31;35.58
78625;BME280;67944;0.000;0.000;2024-03-22T11:37:07;100820.13;;;23.31;35.74
78625;BME280;67944;0.000;0.000;2024-03-22T11:39:39;100816.63;;;23.30;35.49
78625;BME280;67944;0.000;0.000;2024-03-22T11:42:06;100812.13;;;23.31;35.36
78625;BME280;67944;0.000;0.000;2024-03-22T11:44:37;100810.31;;;23.31;35.82
78625;BME280;67944;0.000;0.000;2024-03-22T11:47:04;100808.47;;;23.32;35.23
78625;BME280;67944;0.000;0.000;2024-03-22T11:49:30;100803.97;;;23.32;35.42
78625;BME280;67944;0.000;0.000;2024-03-22T11:51:56;100795.00;;;23.33;35.72
78625;BME280;67944;0.000;0.000;2024-03-22T11:54:22;100795.00;;;23.33;35.65
78625;BME280;67944;0.000;0.000;2024-03-22T11:56:49;100788.66;;;23.34;35.69
78625;BME280;67944;0.000;0.000;2024-03-22T11:59:14;100791.31;;;23.34;35.87
78625;BME280;67944;0.000;0.000;2024-03-22T12:01:43;100779.50;;;23.37;34.87
78625;BME280;67944;0.000;0.000;2024-03-22T12:04:09;100780.31;;;23.37;35.51
78625;BME280;67944;0.000;0.000;2024-03-22T12:06:42;100774.78;;;23.39;35.36
78625;BME280;67944;0.000;0.000;2024-03-22T12:09:07;100763.97;;;23.40;35.70
78625;BME280;67944;0.000;0.000;2024-03-22T12:11:35;100769.28;;;23.40;35.12
78625;BME280;67944;0.000;0.000;2024-03-22T12:14:00;100760.28;;;23.41;35.13
78625;BME280;67944;0.000;0.000;2024-03-22T12:16:25;100760.09;;;23.43;35.11
78625;BME280;67944;0.000;0.000;2024-03-22T12:18:51;100754.78;;;23.43;35.01
78625;BME280;67944;0.000;0.000;2024-03-22T12:21:16;100753.78;;;23.44;35.68
78625;BME280;67944;0.000;0.000;2024-03-22T12:23:42;100752.94;;;23.43;35.13
78625;BME280;67944;0.000;0.000;2024-03-22T12:26:07;100743.97;;;23.44;35.01
78625;BME280;67944;0.000;0.000;2024-03-22T12:28:33;100743.13;;;23.44;34.74
78625;BME280;67944;0.000;0.000;2024-03-22T12:30:58;100746.63;;;23.44;35.27
78625;BME280;67944;0.000;0.000;2024-03-22T12:33:24;100741.13;;;23.46;35.04
78625;BME280;67944;0.000;0.000;2024-03-22T12:35:49;100728.66;;;23.46;35.07
78625;BME280;67944;0.000;0.000;2024-03-22T12:38:15;100734.59;;;23.48;34.92
78625;BME280;67944;0.000;0.000;2024-03-22T12:40:40;100738.72;;;23.51;35.36
78625;BME280;67944;0.000;0.000;2024-03-22T12:43:09;100739.53;;;23.51;35.71
78625;BME280;67944;0.000;0.000;2024-03-22T12:45:35;100732.41;;;23.52;34.86
78625;BME280;67944;0.000;0.000;2024-03-22T12:48:01;100727.91;;;23.52;34.91
78625;BME280;67944;0.000;0.000;2024-03-22T12:50:27;100718.09;;;23.53;34.90
78625;BME280;67944;0.000;0.000;2024-03-22T12:52:53;100735.50;;;23.55;34.85
78625;BME280;67944;0.000;0.000;2024-03-22T12:55:18;100724.69;;;23.57;35.36
78625;BME280;67944;0.000;0.000;2024-03-22T12:57:44;100715.69;;;23.58;34.91